Time;durP1;ratioP1;P1;durP2;ratioP2;P2;SDS_P1;SDS_P2;PMS_P1;PMS_P2;Temp;Humidity;BMP_temperature;BMP_pressure;BME280_temperature;BME280_humidity;BME280_pressure;Samples;Min_cycle;Max_cycle;Signal;HPM_P1;HPM_P2
2023/11/08 00:00:48;;;;;;;5.88;2.40;;;;;;;9.06;100.00;100957.63;5108692;27;20083;-60
2023/11/08 00:03:36;;;;;;;6.35;2.47;;;;;;;9.02;100.00;100975.50;5116537;27;20384;-59
2023/11/08 00:06:26;;;;;;;5.95;2.40;;;;;;;9.04;100.00;100973.38;5113090;27;20510;-61
2023/11/08 00:09:14;;;;;;;5.85;2.40;;;;;;;9.04;100.00;100981.53;5072432;28;20098;-61
2023/11/08 00:12:03;;;;;;;6.93;2.55;;;;;;;9.02;100.00;100983.66;5107892;28;20495;-62
2023/11/08 00:14:52;;;;;;;7.75;3.00;;;;;;;9.01;100.00;100973.88;5100616;28;20558;-61
2023/11/08 00:17:41;;;;;;;6.28;2.30;;;;;;;9.01;100.00;100984.75;5077679;28;20512;-61
2023/11/08 00:20:29;;;;;;;5.85;2.42;;;;;;;8.99;100.00;100978.75;5114725;28;20059;-61
2023/11/08 00:23:17;;;;;;;6.88;2.50;;;;;;;8.99;100.00;100973.31;5116228;28;20100;-61
2023/11/08 00:26:05;;;;;;;7.43;2.67;;;;;;;8.98;100.00;100977.94;5110819;28;20152;-62
2023/11/08 00:28:53;;;;;;;5.63;2.60;;;;;;;8.96;100.00;100974.63;5128352;28;20047;-61
2023/11/08 00:31:41;;;;;;;5.03;2.45;;;;;;;8.97;100.00;100973.56;5121903;27;20126;-61
2023/11/08 00:34:29;;;;;;;5.25;2.63;;;;;;;8.96;100.00;100975.44;5141529;27;20112;-62
2023/11/08 00:37:21;;;;;;;4.95;2.25;;;;;;;8.93;100.00;100975.97;5133040;27;20042;-62
2023/11/08 00:40:10;;;;;;;5.47;2.17;;;;;;;8.94;100.00;100983.03;5067198;28;20047;-61
2023/11/08 00:42:58;;;;;;;5.15;2.22;;;;;;;8.96;100.00;100986.31;5113614;27;20508;-57
2023/11/08 00:45:46;;;;;;;7.70;2.78;;;;;;;8.93;100.00;100997.72;5121415;27;20073;-61
2023/11/08 00:52:16;;;;;;;7.38;2.58;;;;;;;8.96;100.00;101013.50;4842051;27;20134;-60
2023/11/08 00:55:05;;;;;;;6.63;2.05;;;;;;;8.96;100.00;101001.81;4938627;29;20048;-61
2023/11/08 00:57:53;;;;;;;7.95;3.00;;;;;;;8.96;100.00;101002.63;4925707;28;20108;-61
2023/11/08 01:00:42;;;;;;;7.55;2.40;;;;;;;8.94;100.00;101004.78;4924186;29;20504;-60
2023/11/08 01:03:30;;;;;;;7.15;2.50;;;;;;;8.94;100.00;101002.06;4924319;29;20082;-61
2023/11/08 01:06:19;;;;;;;5.75;2.28;;;;;;;8.96;100.00;100999.91;4938589;29;20162;-62
2023/11/08 01:09:09;;;;;;;7.15;3.00;;;;;;;8.95;100.00;101002.91;4924122;29;20050;-61
2023/11/08 01:11:58;;;;;;;5.75;2.58;;;;;;;8.95;100.00;101003.72;4937502;29;20500;-61
2023/11/08 01:14:46;;;;;;;6.03;2.65;;;;;;;8.92;100.00;101009.66;4924289;29;20420;-63
2023/11/08 01:17:34;;;;;;;5.85;2.55;;;;;;;8.91;100.00;101007.19;4939438;28;20055;-61
2023/11/08 01:20:22;;;;;;;6.82;2.50;;;;;;;8.88;100.00;101013.94;4925536;29;20048;-62
2023/11/08 01:23:11;;;;;;;4.60;2.42;;;;;;;8.89;100.00;101017.47;4923962;29;20527;-61
2023/11/08 01:25:59;;;;;;;6.88;2.70;;;;;;;8.87;100.00;101020.44;4941082;29;20389;-59
2023/11/08 01:28:48;;;;;;;6.35;2.60;;;;;;;8.87;100.00;101017.72;4955121;28;20054;-60
2023/11/08 01:31:36;;;;;;;5.95;2.25;;;;;;;8.88;100.00;101027.53;4927393;29;20079;-61
2023/11/08 01:34:24;;;;;;;8.60;2.63;;;;;;;8.86;100.00;101024.25;4940093;29;20408;-60
2023/11/08 01:37:12;;;;;;;6.43;2.50;;;;;;;8.86;100.00;101018.81;4925921;28;20043;-61
2023/11/08 01:40:00;;;;;;;7.55;2.90;;;;;;;8.85;100.00;101025.34;4925645;29;20055;-62
2023/11/08 01:42:48;;;;;;;6.75;2.78;;;;;;;8.85;100.00;101024.47;4936698;29;20110;-62
2023/11/08 01:45:36;;;;;;;7.57;2.58;;;;;;;8.85;100.00;101016.34;4944362;28;20078;-62
2023/11/08 01:48:24;;;;;;;9.77;3.05;;;;;;;8.84;100.00;101031.81;4936441;29;20417;-61
2023/11/08 01:51:12;;;;;;;6.38;2.80;;;;;;;8.82;100.00;101023.09;4936014;29;20056;-60
2023/11/08 01:54:00;;;;;;;5.30;2.28;;;;;;;8.83;100.00;101019.31;4920130;29;20051;-61
2023/11/08 01:56:48;;;;;;;7.95;2.78;;;;;;;8.79;100.00;101023.59;4916909;29;20048;-60
2023/11/08 01:59:37;;;;;;;7.38;2.45;;;;;;;8.79;100.00;101020.88;4917388;29;20108;-61
2023/11/08 02:02:25;;;;;;;6.43;2.90;;;;;;;8.81;100.00;101023.38;4913039;29;20055;-61
2023/11/08 02:05:13;;;;;;;8.82;3.10;;;;;;;8.79;100.00;101020.88;4920526;29;20058;-62
2023/11/08 02:08:02;;;;;;;7.28;2.90;;;;;;;8.81;100.00;101028.81;4935370;29;20052;-61
2023/11/08 02:10:50;;;;;;;6.93;2.70;;;;;;;8.79;100.00;101029.03;4917117;29;20052;-61
2023/11/08 02:13:38;;;;;;;5.57;2.45;;;;;;;8.77;100.00;101028.47;4932881;29;20051;-60
2023/11/08 02:16:29;;;;;;;7.57;2.85;;;;;;;8.80;100.00;101027.94;4921661;29;20047;-60
2023/11/08 02:19:17;;;;;;;8.38;3.10;;;;;;;8.80;100.00;101038.00;4922929;29;20574;-61
2023/11/08 02:22:05;;;;;;;5.45;2.22;;;;;;;8.78;100.00;101035.56;4922905;29;20051;-60
2023/11/08 02:24:53;;;;;;;6.40;2.75;;;;;;;8.77;100.00;101031.19;4921865;29;20556;-59
2023/11/08 02:27:50;;;;;;;8.30;2.53;;;;;;;8.76;100.00;101034.16;4937138;29;20043;-61
2023/11/08 02:30:38;;;;;;;8.50;2.70;;;;;;;8.73;100.00;101032.75;4935640;29;20095;-64
2023/11/08 02:33:27;;;;;;;7.47;2.47;;;;;;;8.73;100.00;101040.91;4921695;29;20424;-61
2023/11/08 02:36:16;;;;;;;7.72;2.58;;;;;;;8.71;100.00;101026.75;4923316;29;20199;-61
2023/11/08 02:39:04;;;;;;;5.25;2.30;;;;;;;8.70;100.00;101033.25;4897205;29;20054;-62
2023/11/08 02:41:52;;;;;;;5.35;2.50;;;;;;;8.69;100.00;101026.19;4935662;29;20420;-62
2023/11/08 02:44:40;;;;;;;5.82;2.47;;;;;;;8.68;100.00;101021.81;4908465;29;20146;-61
2023/11/08 02:47:28;;;;;;;6.70;2.47;;;;;;;8.68;100.00;101030.81;4922727;28;20096;-61
2023/11/08 02:50:16;;;;;;;7.03;2.58;;;;;;;8.68;100.00;101029.97;4934515;29;20118;-61
2023/11/08 02:53:05;;;;;;;6.13;2.40;;;;;;;8.64;100.00;101031.56;4936518;29;20070;-61
2023/11/08 02:55:53;;;;;;;7.95;2.80;;;;;;;8.62;100.00;101036.41;4935096;29;20055;-61
2023/11/08 02:58:41;;;;;;;6.53;2.28;;;;;;;8.64;100.00;101034.28;4936278;28;20048;-63
2023/11/08 03:01:29;;;;;;;6.60;2.30;;;;;;;8.65;100.00;101038.63;4935621;29;20390;-62
2023/11/08 03:04:18;;;;;;;5.85;2.53;;;;;;;8.68;100.00;101044.38;4935867;29;20187;-61
2023/11/08 03:07:06;;;;;;;5.53;2.60;;;;;;;8.69;100.00;101042.50;4941916;28;20134;-61
2023/11/08 03:09:54;;;;;;;7.78;2.85;;;;;;;8.67;100.00;101041.91;4935193;29;20116;-61
2023/11/08 03:12:43;;;;;;;7.72;2.50;;;;;;;8.68;100.00;101043.53;4934515;29;20071;-63
2023/11/08 03:15:32;;;;;;;8.10;2.60;;;;;;;8.66;100.00;101041.09;4933724;29;20186;-61
2023/11/08 03:18:21;;;;;;;4.85;2.35;;;;;;;8.65;100.00;101033.19;4921229;29;20052;-61
2023/11/08 03:21:09;;;;;;;6.50;2.45;;;;;;;8.65;100.00;101044.06;4935786;29;20091;-62
2023/11/08 03:24:00;;;;;;;7.43;2.65;;;;;;;8.63;100.00;101043.47;4928324;29;20390;-62
2023/11/08 03:26:49;;;;;;;7.68;2.38;;;;;;;8.62;100.00;101044.56;4910892;29;20091;-62
2023/11/08 03:29:37;;;;;;;4.93;2.20;;;;;;;8.63;100.00;101046.19;4935944;29;20051;-61
2023/11/08 03:32:27;;;;;;;6.45;2.60;;;;;;;8.67;100.00;101037.28;4934679;29;20052;-61
2023/11/08 03:35:15;;;;;;;6.30;2.60;;;;;;;8.65;100.00;101047.59;4935409;29;20056;-61
2023/11/08 03:38:03;;;;;;;4.88;2.22;;;;;;;8.63;100.00;101046.19;4934663;29;20058;-62
2023/11/08 03:40:51;;;;;;;5.35;1.90;;;;;;;8.68;100.00;101055.25;4935628;29;20501;-62
2023/11/08 03:43:39;;;;;;;4.85;2.40;;;;;;;8.66;100.00;101038.38;4917421;29;20526;-61
2023/11/08 03:46:27;;;;;;;6.57;2.47;;;;;;;8.68;100.00;101038.97;4890775;29;20052;-62
2023/11/08 03:49:15;;;;;;;6.72;2.60;;;;;;;8.65;100.00;101038.63;4932060;29;20134;-62
2023/11/08 03:52:03;;;;;;;7.70;2.50;;;;;;;8.63;100.00;101044.28;4935122;29;20210;-61
2023/11/08 03:54:51;;;;;;;7.95;2.53;;;;;;;8.66;100.00;101045.69;4947143;29;20048;-61
2023/11/08 03:57:41;;;;;;;4.97;2.28;;;;;;;8.62;100.00;101047.28;4907639;29;20137;-61
2023/11/08 04:00:29;;;;;;;5.50;2.28;;;;;;;8.60;100.00;101054.84;4935798;29;20063;-61
2023/11/08 04:03:18;;;;;;;6.90;2.63;;;;;;;8.59;100.00;101043.16;4934631;29;20055;-62
2023/11/08 04:06:06;;;;;;;7.00;2.15;;;;;;;8.57;100.00;101047.19;4935417;29;20044;-62
2023/11/08 04:08:56;;;;;;;6.30;2.42;;;;;;;8.55;100.00;101046.63;4929715;29;20048;-62
2023/11/08 04:11:44;;;;;;;6.88;2.60;;;;;;;8.55;100.00;101038.47;4934499;29;20040;-61
2023/11/08 04:14:32;;;;;;;6.40;2.30;;;;;;;8.53;100.00;101050.41;4936524;29;20047;-60
2023/11/08 04:17:20;;;;;;;5.82;2.47;;;;;;;8.53;100.00;101049.59;4935030;28;20134;-60
2023/11/08 04:20:12;;;;;;;5.22;2.38;;;;;;;8.50;100.00;101055.50;4925897;29;20469;-60
2023/11/08 04:23:00;;;;;;;6.18;1.98;;;;;;;8.50;100.00;101056.34;4935616;29;20402;-61
2023/11/08 04:25:49;;;;;;;6.30;2.50;;;;;;;8.47;100.00;101058.75;4938643;29;20044;-61
2023/11/08 04:28:40;;;;;;;8.18;2.50;;;;;;;8.47;100.00;101067.69;4938174;29;20579;-61
2023/11/08 04:31:28;;;;;;;7.25;2.92;;;;;;;8.47;100.00;101070.41;4949434;29;20048;-62
2023/11/08 04:34:16;;;;;;;5.68;2.50;;;;;;;8.47;100.00;101062.28;4948239;28;20048;-61
2023/11/08 04:37:09;;;;;;;6.03;2.42;;;;;;;8.46;100.00;101067.94;4938190;29;20055;-61
2023/11/08 04:39:57;;;;;;;5.40;2.13;;;;;;;8.43;100.00;101063.81;4940195;29;20050;-59
2023/11/08 04:42:46;;;;;;;9.88;2.40;;;;;;;8.43;100.00;101066.53;4949291;29;20051;-61
2023/11/08 04:45:36;;;;;;;6.47;2.58;;;;;;;8.42;100.00;101072.22;4939069;29;20047;-61
2023/11/08 04:48:24;;;;;;;8.07;2.35;;;;;;;8.40;100.00;101064.31;4936985;29;20127;-59
2023/11/08 04:51:12;;;;;;;6.78;2.38;;;;;;;8.37;100.00;101070.22;4938039;29;20102;-61
2023/11/08 04:54:00;;;;;;;6.88;2.70;;;;;;;8.38;100.00;101074.56;4924092;28;20058;-61
2023/11/08 04:56:48;;;;;;;6.75;2.50;;;;;;;8.35;100.00;101066.94;4911445;29;20114;-62
2023/11/08 04:59:36;;;;;;;7.30;2.40;;;;;;;8.35;100.00;101077.78;4938096;29;20052;-61
2023/11/08 05:02:24;;;;;;;6.53;2.60;;;;;;;8.38;100.00;101077.28;4937329;29;20539;-61
2023/11/08 05:05:14;;;;;;;5.38;2.13;;;;;;;8.38;100.00;101074.56;4936856;29;20056;-63
2023/11/08 05:08:04;;;;;;;5.00;2.13;;;;;;;8.45;100.00;101072.56;4922282;29;20134;-61
2023/11/08 05:10:52;;;;;;;7.15;2.50;;;;;;;8.49;100.00;101079.13;4936456;29;20069;-62
2023/11/08 05:13:42;;;;;;;7.03;2.20;;;;;;;8.45;100.00;101077.16;4949239;29;20516;-62
2023/11/08 05:16:31;;;;;;;5.60;1.90;;;;;;;8.42;100.00;101075.78;4923003;29;20389;-60
2023/11/08 05:19:22;;;;;;;6.97;2.38;;;;;;;8.39;100.00;101073.50;4932327;29;20046;-62
2023/11/08 05:22:11;;;;;;;6.10;2.35;;;;;;;8.41;100.00;101076.81;4936750;29;20423;-61
2023/11/08 05:25:03;;;;;;;5.75;2.17;;;;;;;8.38;100.00;101071.03;4937791;29;20052;-61
2023/11/08 05:27:52;;;;;;;6.68;2.13;;;;;;;8.34;100.00;101081.56;4937775;29;20048;-62
2023/11/08 05:30:41;;;;;;;5.35;2.17;;;;;;;8.40;100.00;101082.53;4936604;29;20115;-62
2023/11/08 05:33:30;;;;;;;9.50;3.08;;;;;;;8.36;100.00;101084.84;4937496;29;20051;-62
2023/11/08 05:36:18;;;;;;;5.68;2.40;;;;;;;8.33;100.00;101085.34;4936864;29;20084;-61
2023/11/08 05:39:06;;;;;;;7.88;2.72;;;;;;;8.35;100.00;101085.94;4936177;29;20044;-62
2023/11/08 05:41:54;;;;;;;8.55;2.90;;;;;;;8.33;100.00;101090.78;4935189;29;20063;-63
2023/11/08 05:44:42;;;;;;;7.40;2.38;;;;;;;8.33;100.00;101085.34;4937083;29;20142;-63
2023/11/08 05:47:31;;;;;;;6.85;2.97;;;;;;;8.33;100.00;101082.66;4923982;28;20088;-62
2023/11/08 05:50:20;;;;;;;6.50;2.22;;;;;;;8.31;100.00;101084.78;4923674;29;20055;-62
2023/11/08 05:53:08;;;;;;;6.28;2.38;;;;;;;8.29;100.00;101089.63;4936480;29;20055;-62
2023/11/08 05:55:56;;;;;;;5.45;2.28;;;;;;;8.32;100.00;101083.69;4936456;29;20052;-62
2023/11/08 05:58:44;;;;;;;7.30;2.70;;;;;;;8.31;100.00;101087.50;4923066;29;20055;-62
2023/11/08 06:01:32;;;;;;;6.30;2.20;;;;;;;8.32;100.00;101079.13;4936042;29;20047;-63
2023/11/08 06:04:20;;;;;;;5.20;2.25;;;;;;;8.35;100.00;101082.41;4922897;29;20058;-63
2023/11/08 06:07:08;;;;;;;5.55;2.42;;;;;;;8.31;100.00;101073.91;4936828;28;20048;-63
2023/11/08 06:09:57;;;;;;;4.65;1.95;;;;;;;8.34;100.00;101081.56;4934860;29;20162;-62
2023/11/08 06:12:46;;;;;;;9.00;2.55;;;;;;;8.30;100.00;101080.44;4949005;28;20131;-63
2023/11/08 06:15:34;;;;;;;6.78;2.60;;;;;;;8.31;100.00;101079.34;4936394;29;20051;-63
2023/11/08 06:18:25;;;;;;;4.95;2.10;;;;;;;8.32;100.00;101078.25;4935423;28;20055;-62
2023/11/08 06:21:14;;;;;;;7.30;2.70;;;;;;;8.20;100.00;101075.66;4935919;29;20063;-64
2023/11/08 06:24:04;;;;;;;6.70;2.38;;;;;;;8.16;100.00;101082.63;4237303;28;10000734;-62
2023/11/08 06:26:55;;;;;;;7.60;2.88;;;;;;;8.16;100.00;101081.81;4916006;29;20048;-62
2023/11/08 06:29:44;;;;;;;6.57;2.45;;;;;;;8.20;100.00;101088.38;4932610;29;20148;-62
2023/11/08 06:32:32;;;;;;;7.35;2.60;;;;;;;8.19;100.00;101092.19;4933529;29;20047;-62
2023/11/08 06:35:20;;;;;;;7.35;2.55;;;;;;;8.19;100.00;101095.72;4937851;29;20142;-61
2023/11/08 06:38:09;;;;;;;8.50;2.60;;;;;;;8.17;100.00;101092.41;4935258;29;20039;-61
2023/11/08 06:40:57;;;;;;;5.95;2.50;;;;;;;8.21;100.00;101098.19;4923541;29;20457;-62
2023/11/08 06:43:46;;;;;;;4.22;2.10;;;;;;;8.17;100.00;101097.03;4909586;29;20052;-61
2023/11/08 06:46:34;;;;;;;5.70;2.60;;;;;;;8.17;100.00;101097.03;4935644;29;20043;-62
2023/11/08 06:49:24;;;;;;;9.13;3.13;;;;;;;8.14;100.00;101094.81;4933242;29;20047;-61
2023/11/08 06:52:13;;;;;;;7.65;2.58;;;;;;;8.09;100.00;101107.22;4931891;29;20066;-62
2023/11/08 06:55:01;;;;;;;11.27;3.15;;;;;;;8.10;100.00;101108.03;4919686;29;20048;-63
2023/11/08 06:57:49;;;;;;;9.35;3.00;;;;;;;8.10;100.00;101111.59;4931421;29;20055;-62
2023/11/08 07:00:38;;;;;;;9.38;2.80;;;;;;;8.10;100.00;101108.88;4932991;29;20048;-62
2023/11/08 07:03:26;;;;;;;5.95;2.63;;;;;;;8.13;100.00;101106.72;4918738;29;20055;-60
2023/11/08 07:06:14;;;;;;;7.80;2.97;;;;;;;8.17;100.00;101111.41;4933779;29;20101;-63
2023/11/08 07:09:03;;;;;;;8.00;2.67;;;;;;;8.15;100.00;101105.41;4907125;29;20047;-63
2023/11/08 07:11:51;;;;;;;7.68;2.80;;;;;;;8.14;100.00;101101.06;4919121;29;20082;-63
2023/11/08 07:14:39;;;;;;;11.48;3.22;;;;;;;8.16;100.00;101101.63;4920090;29;20047;-63
2023/11/08 07:17:29;;;;;;;9.20;3.13;;;;;;;8.20;100.00;101101.94;4931020;29;20078;-62
2023/11/08 07:20:18;;;;;;;14.00;3.58;;;;;;;8.18;100.00;101099.50;4932939;29;20047;-63
2023/11/08 07:23:06;;;;;;;9.05;3.17;;;;;;;8.19;100.00;101103.84;4932222;29;20051;-62
2023/11/08 07:25:54;;;;;;;7.97;3.08;;;;;;;8.25;100.00;101110.19;4948714;28;20044;-62
2023/11/08 07:28:44;;;;;;;7.38;2.83;;;;;;;8.22;100.00;101110.69;4933213;29;20051;-63
2023/11/08 07:31:35;;;;;;;9.10;3.00;;;;;;;8.24;100.00;101106.66;4933028;29;20126;-63
2023/11/08 07:34:24;;;;;;;8.38;3.40;;;;;;;8.30;100.00;101102.97;4936535;29;20052;-63
2023/11/08 07:37:15;;;;;;;7.53;2.92;;;;;;;8.36;100.00;101098.44;4934844;29;20729;-62
2023/11/08 07:40:06;;;;;;;8.38;3.47;;;;;;;8.36;100.00;101097.63;4934772;29;20142;-65
2023/11/08 07:42:54;;;;;;;10.55;3.50;;;;;;;8.35;100.00;101095.97;4933844;29;20048;-62
2023/11/08 07:45:42;;;;;;;12.05;4.13;;;;;;;8.49;100.00;101100.88;4909043;29;20126;-63
2023/11/08 07:48:30;;;;;;;11.10;3.80;;;;;;;8.48;100.00;101092.97;4934648;29;20048;-63
2023/11/08 07:51:18;;;;;;;12.38;3.70;;;;;;;8.42;100.00;101093.94;4934740;29;20489;-62
2023/11/08 07:54:06;;;;;;;9.82;4.05;;;;;;;8.39;100.00;101099.84;4922945;28;20051;-63
2023/11/08 07:56:54;;;;;;;11.55;4.50;;;;;;;8.35;100.00;101102.22;4935350;29;20134;-63
2023/11/08 07:59:42;;;;;;;9.02;2.95;;;;;;;8.46;100.00;101101.34;4937846;29;20054;-62
2023/11/08 08:02:30;;;;;;;9.05;3.47;;;;;;;8.50;100.00;101102.50;4939143;29;20062;-63
2023/11/08 08:05:18;;;;;;;8.38;3.30;;;;;;;8.71;100.00;101094.69;4939318;29;20131;-63
2023/11/08 08:08:06;;;;;;;13.10;3.58;;;;;;;8.70;100.00;101103.88;4939065;29;20040;-62
2023/11/08 08:10:54;;;;;;;8.70;3.42;;;;;;;8.69;100.00;101107.69;4939331;29;20403;-62
2023/11/08 08:13:43;;;;;;;11.23;3.42;;;;;;;8.72;100.00;101109.91;4924871;29;20044;-64
2023/11/08 08:16:31;;;;;;;10.90;3.40;;;;;;;8.81;100.00;101113.84;4951770;29;20179;-61
2023/11/08 08:19:20;;;;;;;10.40;3.22;;;;;;;8.79;100.00;101105.13;4937788;29;20050;-61
2023/11/08 08:22:08;;;;;;;11.07;3.45;;;;;;;8.85;100.00;101117.72;4938694;29;20051;-63
2023/11/08 08:24:56;;;;;;;7.75;3.08;;;;;;;8.79;100.00;101112.44;4939435;29;20397;-63
2023/11/08 08:27:44;;;;;;;10.38;3.78;;;;;;;8.76;100.00;101121.91;4950500;29;20052;-63
2023/11/08 08:30:34;;;;;;;12.13;3.83;;;;;;;8.67;100.00;101123.41;4924896;29;20150;-63
2023/11/08 08:33:22;;;;;;;9.40;3.25;;;;;;;8.68;100.00;101114.16;4927055;28;20044;-62
2023/11/08 08:36:11;;;;;;;10.82;3.40;;;;;;;8.70;100.00;101112.03;4938682;29;20054;-63
2023/11/08 08:38:59;;;;;;;17.58;4.00;;;;;;;8.90;100.00;101122.41;4920137;29;20421;-63
2023/11/08 08:41:47;;;;;;;9.82;3.80;;;;;;;8.83;100.00;101117.13;4926750;29;20172;-64
2023/11/08 08:44:36;;;;;;;10.75;3.33;;;;;;;8.86;100.00;101113.09;4930454;29;20050;-63
2023/11/08 08:47:24;;;;;;;9.98;3.63;;;;;;;8.90;100.00;101108.81;4927180;29;20076;-63
2023/11/08 08:50:19;;;;;;;10.82;2.83;;;;;;;8.85;100.00;101098.69;4939368;29;20047;-63
2023/11/08 08:53:07;;;;;;;15.38;4.65;;;;;;;8.78;100.00;101105.34;4940202;29;20087;-63
2023/11/08 08:55:55;;;;;;;9.10;3.28;;;;;;;8.90;100.00;101108.81;4926840;29;20051;-63
2023/11/08 08:58:43;;;;;;;11.05;3.53;;;;;;;8.81;100.00;101102.16;4930319;29;20135;-63
2023/11/08 09:01:31;;;;;;;10.05;3.40;;;;;;;8.92;100.00;101098.50;4936106;29;20115;-63
2023/11/08 09:04:19;;;;;;;14.50;3.83;;;;;;;8.88;100.00;101103.63;4925387;29;20063;-62
2023/11/08 09:07:08;;;;;;;8.02;3.17;;;;;;;9.05;100.00;101095.44;4938381;29;20127;-64
2023/11/08 09:09:56;;;;;;;11.00;3.70;;;;;;;8.71;100.00;101103.66;4922286;29;20139;-63
2023/11/08 09:12:45;;;;;;;12.32;3.88;;;;;;;8.64;100.00;101102.19;4918886;29;20180;-62
2023/11/08 09:15:33;;;;;;;16.58;4.10;;;;;;;8.62;100.00;101107.03;4932920;29;20051;-63
2023/11/08 09:18:21;;;;;;;10.65;3.60;;;;;;;8.58;100.00;101097.72;4936957;29;20386;-62
2023/11/08 09:21:09;;;;;;;8.55;3.47;;;;;;;8.64;100.00;101103.00;4936708;29;20555;-62
2023/11/08 09:23:57;;;;;;;12.88;4.13;;;;;;;8.78;100.00;101108.91;4936401;29;20543;-62
2023/11/08 09:26:46;;;;;;;14.27;3.85;;;;;;;9.00;100.00;101100.81;4925385;29;20048;-61
2023/11/08 09:29:35;;;;;;;12.75;4.20;;;;;;;9.05;100.00;101097.34;4938710;29;20047;-64
2023/11/08 09:32:25;;;;;;;15.43;4.43;;;;;;;9.16;100.00;101094.50;4922582;29;20080;-62
2023/11/08 09:35:13;;;;;;;12.77;4.43;;;;;;;9.23;100.00;101099.72;4937344;29;20083;-62
2023/11/08 09:38:01;;;;;;;14.20;4.68;;;;;;;9.26;100.00;101095.69;4938066;29;20505;-63
2023/11/08 09:40:49;;;;;;;16.45;4.13;;;;;;;9.03;100.00;101096.75;4923336;29;20491;-63
2023/11/08 09:43:38;;;;;;;10.75;3.53;;;;;;;8.90;100.00;101098.75;4924949;28;20044;-64
2023/11/08 09:46:29;;;;;;;11.68;3.88;;;;;;;8.86;100.00;101105.75;4923251;29;20070;-62
2023/11/08 09:49:17;;;;;;;13.90;3.53;;;;;;;8.84;100.00;101101.66;4923186;29;20051;-64
2023/11/08 09:52:05;;;;;;;11.00;3.38;;;;;;;8.87;100.00;101106.56;4918709;29;20063;-62
2023/11/08 09:54:53;;;;;;;8.35;3.22;;;;;;;8.91;100.00;101102.28;4917332;29;20134;-62
2023/11/08 09:57:46;;;;;;;14.98;4.63;;;;;;;9.12;100.00;101093.34;4922060;29;20040;-63
2023/11/08 10:00:34;;;;;;;15.38;4.55;;;;;;;9.53;100.00;101087.59;4924058;29;20043;-63
2023/11/08 10:03:25;;;;;;;17.50;4.88;;;;;;;9.39;100.00;101098.84;4937019;29;20048;-63
2023/11/08 10:06:14;;;;;;;14.80;4.80;;;;;;;9.41;100.00;101095.09;4935880;29;20047;-63
2023/11/08 10:09:05;;;;;;;13.18;4.38;;;;;;;9.48;100.00;101096.53;4921613;29;20051;-65
2023/11/08 10:11:53;;;;;;;12.98;3.80;;;;;;;9.42;100.00;101091.28;4935128;29;20055;-62
2023/11/08 10:14:44;;;;;;;10.63;3.53;;;;;;;9.51;100.00;101087.84;4898508;29;20054;-63
2023/11/08 10:17:40;;;;;;;12.68;3.40;;;;;;;9.48;100.00;101082.94;4922885;29;20047;-64
2023/11/08 10:20:48;;;;;;;13.73;3.30;;;;;;;9.51;100.00;101078.88;4911460;29;20050;-63
2023/11/08 10:23:54;;;;;;;10.85;3.47;;;;;;;9.43;100.00;101082.03;4936755;29;20048;-64
2023/11/08 10:26:43;;;;;;;14.27;3.83;;;;;;;9.51;100.00;101071.53;4923211;29;20519;-64
2023/11/08 10:29:31;;;;;;;10.68;3.45;;;;;;;9.66;100.00;101073.59;4922913;29;20151;-64
2023/11/08 10:32:24;;;;;;;8.00;3.30;;;;;;;9.66;100.00;101067.34;4937125;29;20439;-65
2023/11/08 10:35:19;;;;;;;10.95;3.67;;;;;;;9.65;100.00;101065.69;4935269;29;20047;-66
2023/11/08 10:38:15;;;;;;;11.63;3.53;;;;;;;9.74;100.00;101062.28;4925451;29;20153;-65
2023/11/08 10:41:05;;;;;;;11.90;3.50;;;;;;;9.82;100.00;101059.06;4927575;29;20291;-65
2023/11/08 10:44:12;;;;;;;12.52;3.50;;;;;;;9.96;100.00;101039.63;4900949;29;20040;-66
2023/11/08 10:47:00;;;;;;;14.10;3.33;;;;;;;9.65;100.00;101042.03;4922465;29;20122;-65
2023/11/08 10:49:51;;;;;;;12.00;3.17;;;;;;;9.45;100.00;101041.81;4935862;29;20047;-64
2023/11/08 10:52:40;;;;;;;10.07;3.38;;;;;;;9.50;100.00;101034.53;4922619;29;20055;-64
2023/11/08 10:55:28;;;;;;;12.13;3.50;;;;;;;9.52;100.00;101026.09;4936087;29;20043;-65
2023/11/08 10:58:18;;;;;;;15.82;4.03;;;;;;;9.51;100.00;101032.63;4934807;29;20062;-66
2023/11/08 11:01:08;;;;;;;10.43;3.30;;;;;;;9.50;100.00;101029.09;4921908;29;20171;-63
2023/11/08 11:04:09;;;;;;;12.45;3.97;;;;;;;9.48;100.00;101027.72;4937199;29;20066;-64
2023/11/08 11:06:58;;;;;;;11.23;3.58;;;;;;;9.48;100.00;101016.84;4935822;29;20082;-66
2023/11/08 11:09:46;;;;;;;11.82;3.63;;;;;;;9.47;100.00;101018.72;4908858;29;20055;-64
2023/11/08 11:12:40;;;;;;;10.23;3.40;;;;;;;9.50;100.00;101014.66;4929220;29;20377;-68
2023/11/08 11:15:53;;;;;;;12.82;3.67;;;;;;;9.53;100.00;101008.72;4916103;29;20063;-64
2023/11/08 11:18:45;;;;;;;12.23;3.78;;;;;;;9.54;100.00;101004.91;4904960;29;20130;-64
2023/11/08 11:21:37;;;;;;;12.10;3.45;;;;;;;9.55;100.00;101003.84;4915608;29;20044;-64
2023/11/08 11:24:37;;;;;;;13.65;3.78;;;;;;;9.61;100.00;101000.09;4905299;28;20408;-63
2023/11/08 11:27:32;;;;;;;11.95;3.45;;;;;;;9.63;100.00;100997.94;4939379;29;20110;-63
2023/11/08 11:30:21;;;;;;;11.98;3.50;;;;;;;9.64;100.00;101001.47;4942698;29;20052;-65
2023/11/08 11:33:09;;;;;;;9.65;3.40;;;;;;;9.65;100.00;100987.63;4930886;29;20126;-65
2023/11/08 11:35:58;;;;;;;11.18;3.78;;;;;;;9.64;100.00;100993.31;4942941;29;20059;-64
2023/11/08 11:38:46;;;;;;;11.25;3.20;;;;;;;9.77;100.00;100982.84;4941603;29;20067;-65
2023/11/08 11:41:36;;;;;;;10.98;4.18;;;;;;;10.01;100.00;100977.84;4954972;28;20043;-65
2023/11/08 11:44:46;;;;;;;17.00;6.43;;;;;;;10.08;100.00;100976.81;4942752;29;20450;-65
2023/11/08 11:47:36;;;;;;;18.23;8.18;;;;;;;10.09;100.00;100982.00;4952348;29;20156;-64
2023/11/08 11:50:25;;;;;;;19.40;8.20;;;;;;;10.24;100.00;100959.50;4935515;29;20483;-63
2023/11/08 11:53:16;;;;;;;20.23;7.43;;;;;;;10.24;100.00;100968.47;4915186;29;20048;-65
2023/11/08 11:56:08;;;;;;;24.98;9.25;;;;;;;10.19;100.00;100963.00;4255797;28;10020681;-65
2023/11/08 11:58:56;;;;;;;29.33;12.55;;;;;;;10.33;100.00;100965.31;4942229;29;20378;-64
2023/11/08 12:01:44;;;;;;;22.35;8.05;;;;;;;10.45;100.00;100961.28;4937346;28;20048;-64
2023/11/08 12:04:32;;;;;;;23.77;8.90;;;;;;;10.38;100.00;100954.44;4936624;29;20079;-65
2023/11/08 12:07:20;;;;;;;33.17;14.05;;;;;;;10.35;100.00;100952.25;4910086;29;20047;-63
2023/11/08 12:10:10;;;;;;;17.23;6.72;;;;;;;10.32;100.00;100944.59;4946296;28;20403;-65
2023/11/08 12:13:01;;;;;;;15.38;6.47;;;;;;;10.33;100.00;100943.53;4935046;29;20050;-65
2023/11/08 12:16:00;;;;;;;23.42;10.23;;;;;;;10.32;100.00;100941.88;4936337;29;20055;-65
2023/11/08 12:18:50;;;;;;;25.58;10.73;;;;;;;10.47;100.00;100935.72;4932201;29;20055;-65
2023/11/08 12:21:39;;;;;;;26.50;10.15;;;;;;;10.64;100.00;100936.34;4948485;29;20175;-65
2023/11/08 12:24:31;;;;;;;17.33;7.50;;;;;;;10.58;100.00;100935.50;4936525;29;20047;-64
2023/11/08 12:27:19;;;;;;;18.85;8.40;;;;;;;10.65;100.00;100930.63;4936934;29;20050;-64
2023/11/08 12:30:08;;;;;;;22.45;8.93;;;;;;;10.56;100.00;100936.81;4939674;28;20136;-65
2023/11/08 12:32:56;;;;;;;14.05;5.60;;;;;;;10.42;100.00;100925.59;4893581;29;20118;-64
2023/11/08 12:35:45;;;;;;;30.83;12.40;;;;;;;10.58;100.00;100929.22;4906673;29;20044;-65
2023/11/08 12:38:34;;;;;;;26.20;11.35;;;;;;;10.63;100.00;100921.91;4921547;29;20534;-65
2023/11/08 12:41:22;;;;;;;16.73;6.60;;;;;;;10.54;100.00;100923.50;4937721;29;20043;-65
2023/11/08 12:44:12;;;;;;;20.15;7.93;;;;;;;10.42;100.00;100926.41;4924339;29;20131;-65
2023/11/08 12:47:06;;;;;;;23.70;11.55;;;;;;;10.45;100.00;100928.59;4938504;29;20047;-64
2023/11/08 12:49:55;;;;;;;30.00;12.63;;;;;;;10.65;100.00;100929.78;4936759;29;20049;-65
2023/11/08 12:52:43;;;;;;;32.97;15.35;;;;;;;10.93;100.00;100922.28;4920924;29;20490;-65
2023/11/08 12:55:42;;;;;;;25.92;12.57;;;;;;;10.78;100.00;100912.16;4937896;29;20052;-65
2023/11/08 12:58:32;;;;;;;17.77;8.27;;;;;;;10.68;100.00;100912.09;4902508;29;20060;-64
2023/11/08 13:01:21;;;;;;;29.20;12.98;;;;;;;10.90;100.00;100904.56;4906804;29;20040;-64
2023/11/08 13:04:10;;;;;;;28.30;11.85;;;;;;;10.86;100.00;100908.88;4920664;29;20365;-65
2023/11/08 13:06:59;;;;;;;21.92;10.52;;;;;;;10.77;100.00;100896.88;4907542;29;20044;-66